Time;durP1;ratioP1;P1;durP2;ratioP2;P2;SDS_P1;SDS_P2;PMS_P1;PMS_P2;Temp;Humidity;BMP_temperature;BMP_pressure;BME280_temperature;BME280_humidity;BME280_pressure;Samples;Min_cycle;Max_cycle;Signal;HPM_P1;HPM_P2
2022/05/24 00:01:16;;;;;;;11.77;3.30;;;18.80;71.60;;;;;;5084344;28;20052;-63
2022/05/24 00:03:42;;;;;;;11.40;4.10;;;18.80;71.70;;;;;;5090499;28;20067;-64
2022/05/24 00:06:08;;;;;;;9.48;4.30;;;18.80;71.80;;;;;;5089400;28;20424;-62
2022/05/24 00:08:34;;;;;;;10.88;4.10;;;18.80;71.80;;;;;;5091518;28;20051;-63
2022/05/24 00:11:00;;;;;;;6.65;4.05;;;18.80;71.80;;;;;;5089061;28;20024;-62
2022/05/24 00:13:26;;;;;;;12.73;4.70;;;18.80;71.90;;;;;;5084558;28;20017;-62
2022/05/24 00:15:52;;;;;;;7.63;4.50;;;18.90;71.80;;;;;;5086267;28;20040;-62
2022/05/24 00:18:26;;;;;;;11.10;4.82;;;18.80;71.90;;;;;;5086548;28;20025;-62
2022/05/24 00:20:56;;;;;;;5.38;3.97;;;18.90;72.30;;;;;;5090014;28;20035;-63
2022/05/24 00:23:24;;;;;;;7.60;4.85;;;18.90;72.00;;;;;;5092606;28;20410;-62
2022/05/24 00:25:53;;;;;;;10.57;4.78;;;18.80;71.90;;;;;;5091776;28;20067;-62
2022/05/24 00:28:20;;;;;;;8.52;4.80;;;18.90;72.00;;;;;;5088059;28;20086;-62
2022/05/24 00:30:48;;;;;;;8.23;4.55;;;18.80;71.70;;;;;;5086505;28;20043;-62
2022/05/24 00:33:14;;;;;;;9.20;4.85;;;18.80;71.80;;;;;;5081703;28;20035;-62
2022/05/24 00:35:41;;;;;;;8.38;4.93;;;18.80;71.70;;;;;;5083171;28;20692;-63
2022/05/24 00:38:10;;;;;;;8.07;5.03;;;18.80;71.80;;;;;;5095567;28;20131;-62
2022/05/24 00:40:50;;;;;;;7.80;4.70;;;18.80;71.90;;;;;;5089542;28;20107;-64
2022/05/24 00:43:35;;;;;;;10.82;4.72;;;18.80;72.40;;;;;;5088771;28;20024;-62
2022/05/24 00:46:16;;;;;;;8.50;4.38;;;18.80;72.50;;;;;;5087639;28;20054;-61
2022/05/24 00:48:55;;;;;;;7.97;4.28;;;18.80;72.30;;;;;;5084069;28;20032;-63
2022/05/24 00:51:27;;;;;;;7.22;4.53;;;18.80;72.50;;;;;;5080577;28;20572;-62
2022/05/24 00:53:56;;;;;;;9.70;4.47;;;18.80;72.50;;;;;;5071222;28;20056;-63
2022/05/24 00:56:35;;;;;;;10.00;4.40;;;18.80;72.30;;;;;;5072824;28;20037;-63
2022/05/24 00:59:05;;;;;;;8.57;4.25;;;18.80;72.60;;;;;;5074158;28;20070;-64
2022/05/24 01:01:36;;;;;;;6.20;4.10;;;18.80;72.40;;;;;;5071952;28;20025;-63
2022/05/24 01:04:03;;;;;;;6.93;3.75;;;18.80;72.50;;;;;;5077871;28;20039;-62
2022/05/24 01:06:29;;;;;;;7.93;3.92;;;18.80;72.10;;;;;;5070687;28;20076;-63
2022/05/24 01:08:59;;;;;;;5.47;3.78;;;18.80;72.20;;;;;;5068254;28;20071;-63
2022/05/24 01:11:25;;;;;;;8.90;4.07;;;18.80;72.30;;;;;;5074597;28;20055;-63
2022/05/24 01:13:55;;;;;;;12.50;4.55;;;18.80;72.20;;;;;;5070466;28;20033;-61
2022/05/24 01:16:21;;;;;;;9.07;4.68;;;18.80;72.30;;;;;;5068393;28;20029;-63
2022/05/24 01:18:46;;;;;;;7.38;4.20;;;18.80;72.20;;;;;;5065317;28;20032;-62
2022/05/24 01:21:15;;;;;;;9.25;4.13;;;18.80;72.20;;;;;;5053172;28;20029;-64
2022/05/24 01:24:03;;;;;;;5.82;3.83;;;18.80;73.00;;;;;;5073232;28;20040;-63
2022/05/24 01:26:50;;;;;;;6.85;3.72;;;18.80;73.10;;;;;;5018581;28;20028;-63
2022/05/24 01:29:18;;;;;;;7.32;4.05;;;18.80;72.60;;;;;;5076207;28;20048;-62
2022/05/24 01:37:14;;;;;;;6.13;3.38;;;18.80;72.20;;;;;;5067677;28;20055;-64
2022/05/24 01:39:44;;;;;;;6.20;3.70;;;18.70;72.10;;;;;;5073099;28;20032;-63
2022/05/24 01:42:10;;;;;;;9.10;4.03;;;18.80;72.30;;;;;;5077831;28;20169;-63
2022/05/24 01:44:43;;;;;;;7.85;4.50;;;18.70;72.20;;;;;;5066915;28;20040;-62
2022/05/24 01:47:09;;;;;;;8.85;4.38;;;18.70;72.30;;;;;;5070915;28;20029;-63
2022/05/24 01:49:39;;;;;;;8.43;4.18;;;18.70;72.30;;;;;;5072055;28;20108;-63
2022/05/24 01:52:13;;;;;;;8.27;4.40;;;18.70;72.50;;;;;;5088052;28;20095;-62
2022/05/24 01:54:45;;;;;;;8.85;4.15;;;18.60;72.60;;;;;;5083612;28;20024;-63
2022/05/24 01:57:17;;;;;;;8.93;4.32;;;18.60;72.60;;;;;;5097766;28;20516;-64
2022/05/24 01:59:45;;;;;;;6.80;4.30;;;18.60;72.60;;;;;;5091005;28;20043;-62
2022/05/24 02:02:11;;;;;;;11.82;4.43;;;18.60;72.70;;;;;;5095693;28;20195;-63
2022/05/24 02:04:37;;;;;;;11.27;5.18;;;18.60;72.70;;;;;;5087005;28;20522;-62
2022/05/24 02:07:08;;;;;;;8.02;4.53;;;18.60;72.70;;;;;;5094205;28;20064;-62
2022/05/24 02:09:36;;;;;;;5.93;4.57;;;18.60;72.90;;;;;;5091193;28;20024;-62
2022/05/24 02:12:34;;;;;;;9.52;4.72;;;18.60;72.90;;;;;;5099851;28;20057;-64
2022/05/24 02:15:13;;;;;;;5.90;3.55;;;18.60;74.20;;;;;;5083026;28;20048;-63
2022/05/24 02:17:44;;;;;;;4.82;3.20;;;18.60;72.80;;;;;;5096471;28;20043;-62
2022/05/24 02:20:14;;;;;;;6.40;2.65;;;18.60;72.30;;;;;;5092540;28;20386;-64
2022/05/24 02:22:41;;;;;;;5.03;2.10;;;18.60;72.10;;;;;;5087984;28;20028;-62
2022/05/24 02:25:13;;;;;;;2.22;1.73;;;18.60;71.70;;;;;;5094602;28;20029;-63
2022/05/24 02:27:43;;;;;;;4.40;1.77;;;18.50;71.90;;;;;;5094053;28;20717;-63
2022/05/24 02:30:11;;;;;;;3.03;1.52;;;18.50;71.60;;;;;;5089460;28;20039;-63
2022/05/24 02:32:37;;;;;;;3.60;1.20;;;18.50;71.50;;;;;;5070608;28;20032;-64
2022/05/24 02:35:03;;;;;;;2.05;1.30;;;18.50;71.20;;;;;;5093027;28;20025;-64
2022/05/24 02:37:28;;;;;;;3.25;1.33;;;18.50;71.00;;;;;;5094484;28;20056;-64
2022/05/24 02:42:38;;;;;;;3.45;1.10;;;18.50;70.90;;;;;;5091297;28;20047;-63
2022/05/24 02:45:04;;;;;;;7.93;1.20;;;18.40;70.70;;;;;;5072119;28;20078;-62
2022/05/24 02:47:30;;;;;;;2.58;1.00;;;18.40;70.90;;;;;;5066581;28;20082;-63
2022/05/24 02:49:56;;;;;;;2.78;0.90;;;18.40;70.90;;;;;;5086996;28;20064;-63
2022/05/24 02:52:22;;;;;;;3.08;1.15;;;18.30;70.70;;;;;;5074014;28;20045;-63
2022/05/24 02:54:47;;;;;;;1.55;1.00;;;18.30;70.90;;;;;;5069429;28;20031;-63
2022/05/24 02:57:13;;;;;;;2.40;1.10;;;18.30;71.00;;;;;;5075624;28;20043;-63
2022/05/24 02:59:39;;;;;;;1.52;1.00;;;18.30;71.20;;;;;;5073590;28;20036;-62
2022/05/24 03:02:05;;;;;;;2.13;1.08;;;18.30;71.30;;;;;;5075839;28;20024;-64
2022/05/24 03:04:31;;;;;;;1.00;0.80;;;18.30;71.30;;;;;;5069697;28;20119;-63
2022/05/24 03:09:41;;;;;;;3.47;1.10;;;18.40;71.30;;;;;;5073421;28;20050;-63
2022/05/24 03:14:54;;;;;;;2.88;1.13;;;18.40;71.50;;;;;;5070623;28;20036;-63
2022/05/24 03:17:21;;;;;;;2.75;1.05;;;18.40;71.30;;;;;;5066012;28;20044;-63
2022/05/24 03:19:47;;;;;;;3.30;1.15;;;18.40;71.20;;;;;;5068443;28;20035;-63
2022/05/24 03:22:13;;;;;;;2.15;0.88;;;18.30;71.10;;;;;;5073020;28;20028;-62
2022/05/24 03:24:39;;;;;;;2.45;1.10;;;18.30;71.10;;;;;;5068921;28;20032;-63
2022/05/24 03:27:11;;;;;;;2.58;1.02;;;18.30;71.30;;;;;;4954117;28;20024;-63
2022/05/24 03:29:38;;;;;;;1.33;0.80;;;18.30;71.40;;;;;;5055025;28;20065;-64
2022/05/24 03:32:05;;;;;;;2.47;0.90;;;18.30;71.40;;;;;;5065888;28;20056;-63
2022/05/24 03:34:31;;;;;;;3.78;1.00;;;18.30;71.40;;;;;;5066742;28;20028;-64
2022/05/24 03:36:56;;;;;;;1.35;0.95;;;18.20;71.50;;;;;;5071334;28;20033;-63
2022/05/24 03:39:22;;;;;;;3.33;0.90;;;18.20;71.60;;;;;;5066736;28;20419;-65
2022/05/24 03:41:48;;;;;;;3.08;0.80;;;18.20;71.60;;;;;;5076328;28;20463;-63
2022/05/24 03:44:13;;;;;;;1.98;0.80;;;18.10;71.70;;;;;;5070757;28;20491;-64
2022/05/24 03:46:40;;;;;;;3.08;0.80;;;18.10;72.60;;;;;;5069884;28;20091;-63
2022/05/24 03:49:05;;;;;;;4.25;0.93;;;18.10;71.90;;;;;;5069192;28;20385;-63
2022/05/24 03:51:31;;;;;;;1.52;1.20;;;18.10;72.00;;;;;;5070720;28;20079;-63
2022/05/24 03:53:57;;;;;;;1.05;0.80;;;18.00;72.10;;;;;;5093721;28;20023;-63
2022/05/24 03:56:23;;;;;;;4.35;0.75;;;18.10;72.10;;;;;;5084595;28;20040;-63
2022/05/24 03:58:49;;;;;;;1.13;0.80;;;18.00;72.10;;;;;;5087598;28;20032;-63
2022/05/24 04:01:15;;;;;;;1.10;0.88;;;18.00;72.20;;;;;;5085093;28;20032;-62
2022/05/24 04:03:40;;;;;;;3.50;0.85;;;18.00;72.40;;;;;;5087689;28;20031;-63
2022/05/24 04:06:06;;;;;;;2.65;1.02;;;18.00;72.60;;;;;;5089653;28;20047;-65
2022/05/24 04:08:32;;;;;;;2.30;0.98;;;18.00;72.80;;;;;;5089091;28;20025;-63
2022/05/24 04:10:59;;;;;;;3.90;1.20;;;18.00;72.90;;;;;;5085893;28;20043;-63
2022/05/24 04:13:24;;;;;;;9.32;1.73;;;18.00;73.10;;;;;;5091039;28;20028;-62
2022/05/24 04:15:50;;;;;;;2.63;1.50;;;18.00;73.00;;;;;;5092213;28;20040;-64
2022/05/24 04:18:15;;;;;;;4.10;1.38;;;18.10;73.00;;;;;;5069950;28;20056;-63
2022/05/24 04:20:41;;;;;;;4.53;1.25;;;18.10;73.00;;;;;;5085428;28;20036;-64
2022/05/24 04:23:12;;;;;;;3.17;1.00;;;18.10;72.80;;;;;;5091306;28;20032;-63
2022/05/24 04:25:38;;;;;;;1.23;0.90;;;18.10;72.80;;;;;;5084858;28;20051;-62
2022/05/24 04:28:04;;;;;;;3.00;0.90;;;18.10;72.50;;;;;;5094148;28;20024;-64
2022/05/24 04:30:30;;;;;;;0.75;0.75;;;18.10;72.50;;;;;;5087166;28;20024;-62
2022/05/24 04:32:56;;;;;;;1.70;0.90;;;18.10;72.60;;;;;;5095914;28;20032;-63
2022/05/24 04:35:21;;;;;;;0.85;0.82;;;18.10;72.60;;;;;;5088701;28;20029;-62
2022/05/24 04:37:47;;;;;;;2.45;1.27;;;18.10;72.60;;;;;;5093438;28;20046;-63
2022/05/24 04:40:13;;;;;;;1.15;1.05;;;18.20;72.90;;;;;;5094160;28;20024;-63
2022/05/24 04:42:39;;;;;;;1.58;1.10;;;18.20;72.90;;;;;;5095936;28;20032;-63
2022/05/24 04:45:10;;;;;;;1.80;1.50;;;18.20;72.90;;;;;;5091715;28;20029;-63
2022/05/24 04:47:36;;;;;;;3.20;1.15;;;18.20;73.20;;;;;;5078385;28;20051;-63
2022/05/24 04:50:12;;;;;;;2.13;1.27;;;18.30;73.20;;;;;;5091945;28;20126;-63
2022/05/24 04:52:40;;;;;;;2.30;1.50;;;18.30;73.40;;;;;;5072990;28;20045;-63
2022/05/24 04:55:10;;;;;;;3.53;1.45;;;18.30;72.90;;;;;;5073132;28;20032;-64
2022/05/24 04:57:35;;;;;;;2.60;1.70;;;18.30;73.00;;;;;;5053490;28;20101;-63
2022/05/24 05:00:04;;;;;;;2.55;1.45;;;18.30;73.00;;;;;;5048537;28;20053;-63
2022/05/24 05:02:30;;;;;;;3.05;1.40;;;18.40;73.20;;;;;;5069568;28;20435;-64
2022/05/24 05:04:56;;;;;;;3.17;1.42;;;18.40;73.20;;;;;;5070972;28;20478;-63
2022/05/24 05:07:21;;;;;;;2.65;1.48;;;18.40;73.20;;;;;;5070989;28;20020;-63
2022/05/24 05:09:50;;;;;;;2.33;1.30;;;18.40;73.20;;;;;;5073026;28;20462;-62
2022/05/24 05:12:16;;;;;;;2.17;1.10;;;18.40;73.20;;;;;;5078244;28;20025;-63
2022/05/24 05:14:43;;;;;;;2.30;1.30;;;18.40;73.10;;;;;;5075353;28;20025;-63
2022/05/24 05:17:10;;;;;;;4.15;1.30;;;18.50;73.00;;;;;;5072585;28;20036;-63
2022/05/24 05:19:35;;;;;;;3.10;1.60;;;18.50;73.00;;;;;;5070089;28;20139;-63
2022/05/24 05:22:02;;;;;;;1.95;1.20;;;18.50;72.90;;;;;;5070832;28;20029;-63
2022/05/24 05:24:28;;;;;;;2.40;1.30;;;18.50;72.80;;;;;;5070961;28;20523;-63
2022/05/24 05:26:54;;;;;;;4.05;1.30;;;18.50;72.80;;;;;;5082337;28;20020;-64
2022/05/24 05:31:16;;;;;;;1.58;1.25;;;18.50;72.80;;;;;;5071797;28;20032;-64
2022/05/24 05:32:06;;;;;;;1.92;1.17;;;18.50;73.10;;;;;;5072817;28;20045;-62
2022/05/24 05:34:32;;;;;;;2.25;1.20;;;18.50;73.20;;;;;;5075417;28;20113;-63
2022/05/24 05:36:58;;;;;;;1.30;1.20;;;18.50;73.20;;;;;;5071446;28;20037;-63
2022/05/24 05:39:24;;;;;;;2.70;1.20;;;18.60;73.00;;;;;;5073597;28;20079;-63
2022/05/24 05:41:50;;;;;;;1.10;1.00;;;18.60;72.70;;;;;;5075087;28;20040;-63
2022/05/24 05:44:15;;;;;;;2.92;1.20;;;18.60;72.50;;;;;;5071571;28;20039;-62
2022/05/24 05:46:41;;;;;;;2.30;1.10;;;18.70;72.40;;;;;;5076067;28;20032;-62
2022/05/24 05:49:07;;;;;;;1.10;0.90;;;18.70;72.40;;;;;;5070239;28;20052;-62
2022/05/24 05:51:32;;;;;;;1.85;1.23;;;18.70;72.30;;;;;;5079976;28;20059;-62
2022/05/24 05:53:58;;;;;;;2.38;1.30;;;18.70;72.30;;;;;;5094730;28;20048;-62
2022/05/24 05:56:24;;;;;;;2.85;1.27;;;18.70;72.50;;;;;;5075478;28;20032;-63
2022/05/24 05:58:49;;;;;;;2.15;1.10;;;18.70;72.80;;;;;;5097116;28;20050;-62
2022/05/24 06:01:29;;;;;;;1.05;0.95;;;18.70;72.90;;;;;;5086552;28;20036;-62
2022/05/24 06:03:56;;;;;;;3.53;1.17;;;18.70;72.90;;;;;;5089220;28;20028;-62
2022/05/24 06:06:26;;;;;;;1.45;1.20;;;18.70;72.80;;;;;;5092422;28;20029;-62
2022/05/24 06:08:52;;;;;;;3.20;1.58;;;18.70;72.60;;;;;;5093121;28;20047;-63
2022/05/24 06:11:17;;;;;;;5.55;1.40;;;18.70;72.50;;;;;;5087108;28;20027;-62
2022/05/24 06:13:43;;;;;;;3.30;1.30;;;18.70;72.50;;;;;;5088214;28;20029;-62
2022/05/24 06:16:10;;;;;;;1.48;1.33;;;18.70;72.80;;;;;;5092418;28;20036;-63
2022/05/24 06:18:36;;;;;;;2.55;1.48;;;18.70;73.00;;;;;;5090206;28;20016;-62
2022/05/24 06:21:03;;;;;;;6.18;1.63;;;18.70;73.10;;;;;;5089487;28;20021;-61
2022/05/24 06:23:28;;;;;;;2.72;1.70;;;18.70;73.00;;;;;;5085270;28;20028;-62
2022/05/24 06:25:54;;;;;;;2.75;1.70;;;18.80;72.90;;;;;;5092541;28;20048;-62
2022/05/24 06:28:20;;;;;;;1.88;1.60;;;18.80;72.90;;;;;;5085922;28;20066;-63
2022/05/24 06:30:46;;;;;;;2.65;1.92;;;18.80;73.00;;;;;;5087980;28;20058;-62
2022/05/24 06:33:12;;;;;;;4.38;2.40;;;18.80;73.20;;;;;;5084175;28;20039;-61
2022/05/24 06:35:39;;;;;;;2.60;2.10;;;18.80;73.10;;;;;;5087488;28;20028;-62
2022/05/24 06:38:05;;;;;;;2.92;2.10;;;18.80;73.30;;;;;;5092152;28;20012;-62
2022/05/24 06:40:31;;;;;;;4.57;1.92;;;18.80;73.30;;;;;;5095876;28;20035;-62
2022/05/24 06:42:57;;;;;;;3.00;1.92;;;18.80;73.50;;;;;;5084284;28;20084;-61
2022/05/24 06:45:23;;;;;;;3.53;2.10;;;18.80;73.60;;;;;;5090668;28;20094;-61
2022/05/24 06:47:48;;;;;;;5.03;2.00;;;18.90;73.50;;;;;;5092341;28;20022;-62
2022/05/24 06:50:15;;;;;;;2.83;1.67;;;18.90;73.40;;;;;;5083310;28;20139;-61
2022/05/24 06:52:41;;;;;;;4.75;2.00;;;18.90;73.50;;;;;;5086667;28;20054;-62
2022/05/24 06:55:09;;;;;;;3.58;1.63;;;18.90;73.30;;;;;;5099557;28;20101;-62
2022/05/24 06:57:35;;;;;;;3.30;2.17;;;18.90;73.50;;;;;;5086909;28;20028;-62
2022/05/24 07:02:46;;;;;;;;;;;19.00;73.50;;;;;;5095226;28;20587;-62
2022/05/24 07:05:19;;;;;;;5.72;1.77;;;19.10;73.60;;;;;;5085594;28;19961;-61
2022/05/24 07:07:45;;;;;;;8.80;2.20;;;19.10;73.10;;;;;;5086362;28;20028;-62
2022/05/24 07:10:15;;;;;;;2.72;2.00;;;19.10;72.90;;;;;;5089041;28;20048;-63
2022/05/24 07:12:42;;;;;;;5.47;2.35;;;19.10;73.10;;;;;;5085403;28;20032;-63
2022/05/24 07:15:09;;;;;;;4.30;2.05;;;19.10;73.10;;;;;;5088197;28;20025;-61
2022/05/24 07:17:35;;;;;;;5.53;1.95;;;19.10;72.90;;;;;;5088385;28;20040;-62
2022/05/24 07:20:01;;;;;;;3.85;1.90;;;19.10;72.80;;;;;;5089675;28;20039;-64
2022/05/24 07:22:27;;;;;;;2.22;1.63;;;19.10;72.60;;;;;;5091401;28;20048;-62
2022/05/24 07:24:52;;;;;;;2.30;1.70;;;19.10;72.40;;;;;;5085017;28;20052;-63
2022/05/24 07:27:20;;;;;;;2.72;1.83;;;19.20;72.40;;;;;;5083015;28;20025;-62
2022/05/24 07:29:46;;;;;;;3.13;1.73;;;19.10;72.60;;;;;;5090368;28;20032;-62
2022/05/24 07:32:11;;;;;;;3.05;1.58;;;19.20;72.60;;;;;;5089546;28;20028;-62
2022/05/24 07:34:38;;;;;;;5.38;2.22;;;19.20;72.40;;;;;;5089767;28;20066;-61
2022/05/24 07:37:06;;;;;;;3.47;2.10;;;19.20;72.50;;;;;;5092767;28;20040;-62
2022/05/24 07:39:33;;;;;;;2.25;1.70;;;19.30;72.50;;;;;;5094559;28;20028;-63
2022/05/24 07:47:21;;;;;;;4.32;1.88;;;19.30;71.80;;;;;;5090628;28;20032;-63
2022/05/24 07:49:46;;;;;;;4.90;1.70;;;19.30;71.80;;;;;;5088653;28;20033;-62
2022/05/24 07:52:12;;;;;;;5.72;1.42;;;19.30;71.80;;;;;;5059881;28;20048;-63
2022/05/24 07:54:38;;;;;;;5.10;1.92;;;19.30;71.80;;;;;;5069378;28;20023;-62
2022/05/24 07:57:08;;;;;;;2.42;2.13;;;19.30;71.90;;;;;;5068868;28;20041;-63
2022/05/24 07:59:37;;;;;;;2.58;2.35;;;19.40;71.80;;;;;;5067127;28;20058;-62
2022/05/24 08:02:07;;;;;;;4.05;2.38;;;19.40;71.60;;;;;;5072336;28;20108;-63
2022/05/24 08:04:34;;;;;;;6.72;3.92;;;19.50;71.60;;;;;;5069290;28;20025;-63
2022/05/24 08:07:00;;;;;;;7.63;3.92;;;19.50;71.70;;;;;;5075906;28;20031;-62
2022/05/24 08:09:26;;;;;;;13.00;4.57;;;19.60;71.80;;;;;;5072711;28;20025;-63
2022/05/24 08:11:51;;;;;;;6.22;4.15;;;19.70;71.60;;;;;;5075072;28;20025;-62
2022/05/24 08:14:17;;;;;;;5.80;3.30;;;19.70;71.50;;;;;;5073150;28;20036;-64
2022/05/24 08:16:43;;;;;;;4.07;2.50;;;19.80;71.20;;;;;;5067693;28;20047;-63
2022/05/24 08:19:09;;;;;;;4.65;2.47;;;19.90;70.60;;;;;;5072840;28;20036;-63
2022/05/24 08:21:36;;;;;;;5.00;2.20;;;20.00;70.50;;;;;;5068257;28;20029;-62
2022/05/24 08:24:01;;;;;;;12.55;2.95;;;20.00;69.90;;;;;;5071898;28;20021;-64
2022/05/24 08:26:27;;;;;;;3.80;1.80;;;20.10;69.60;;;;;;5075260;28;20056;-62
2022/05/24 08:28:53;;;;;;;4.35;1.38;;;20.10;69.40;;;;;;5073464;28;20059;-63
2022/05/24 08:31:20;;;;;;;4.95;1.30;;;20.10;69.30;;;;;;5068813;28;20032;-62
2022/05/24 08:33:47;;;;;;;3.45;1.25;;;20.20;69.00;;;;;;5071690;28;20033;-63
2022/05/24 08:36:13;;;;;;;3.80;1.27;;;20.20;68.60;;;;;;5072195;28;20033;-62
2022/05/24 08:38:41;;;;;;;4.07;0.93;;;20.20;68.30;;;;;;5073180;28;20033;-64
2022/05/24 08:41:16;;;;;;;1.40;0.70;;;20.10;65.70;;;;;;5072624;28;20100;-62
2022/05/24 08:49:41;;;;;;;2.03;0.30;;;19.20;61.70;;;;;;5072464;28;20137;-62
2022/05/24 08:52:09;;;;;;;1.05;0.35;;;18.70;61.30;;;;;;5070038;28;20410;-60
2022/05/24 08:54:45;;;;;;;1.13;0.38;;;18.30;61.10;;;;;;5076428;28;20435;-61
2022/05/24 08:57:15;;;;;;;5.03;0.50;;;18.00;61.80;;;;;;5065948;28;20029;-61
2022/05/24 08:59:58;;;;;;;0.68;0.30;;;17.70;63.10;;;;;;5069454;28;20102;-61
2022/05/24 09:02:23;;;;;;;0.40;0.40;;;17.40;63.20;;;;;;5050779;28;20424;-61
2022/05/24 09:04:50;;;;;;;5.07;0.50;;;17.20;65.00;;;;;;5072402;28;20052;-63
2022/05/24 09:07:45;;;;;;;1.58;0.50;;;17.00;65.30;;;;;;5072505;28;20025;-61
2022/05/24 09:10:23;;;;;;;1.77;0.40;;;16.90;65.70;;;;;;5076909;28;20387;-61
2022/05/24 09:13:12;;;;;;;4.20;0.38;;;16.80;66.00;;;;;;5074320;28;20103;-61
2022/05/24 09:15:46;;;;;;;0.40;0.30;;;16.70;66.30;;;;;;5068266;28;20040;-62
2022/05/24 09:18:20;;;;;;;0.77;0.45;;;16.70;66.90;;;;;;5071596;28;20058;-63
2022/05/24 09:20:46;;;;;;;2.22;0.52;;;16.70;67.90;;;;;;5069740;28;20051;-60
2022/05/24 09:23:30;;;;;;;3.10;0.50;;;16.60;68.00;;;;;;5076108;28;20040;-61
2022/05/24 09:26:13;;;;;;;1.52;0.50;;;16.70;68.00;;;;;;5067693;28;20023;-62
2022/05/24 09:28:50;;;;;;;2.92;0.40;;;16.80;69.20;;;;;;5068676;28;20029;-60
2022/05/24 09:31:18;;;;;;;1.38;0.40;;;16.90;70.00;;;;;;5063393;28;20112;-62
2022/05/24 09:33:44;;;;;;;1.73;0.40;;;17.00;69.40;;;;;;5077203;28;20025;-61
2022/05/24 09:36:26;;;;;;;2.25;0.57;;;17.20;69.60;;;;;;5072194;28;20041;-61
2022/05/24 09:38:52;;;;;;;0.40;0.30;;;17.40;68.20;;;;;;5070739;28;20099;-60
2022/05/24 09:41:22;;;;;;;2.72;0.70;;;17.50;68.60;;;;;;5073111;28;20025;-63
2022/05/24 09:44:12;;;;;;;0.82;0.40;;;17.70;68.10;;;;;;5077735;28;20052;-62
2022/05/24 09:46:39;;;;;;;1.55;0.50;;;17.80;67.50;;;;;;5068045;28;20021;-61
2022/05/24 09:49:30;;;;;;;0.85;0.40;;;17.90;67.80;;;;;;5064703;28;20025;-61
2022/05/24 09:52:11;;;;;;;0.38;0.30;;;18.00;67.20;;;;;;5077546;28;20048;-61
2022/05/24 09:54:56;;;;;;;0.77;0.40;;;18.10;65.50;;;;;;5087362;28;20024;-61
2022/05/24 09:57:28;;;;;;;0.60;0.50;;;18.20;66.30;;;;;;5096091;28;20055;-60
2022/05/24 10:00:20;;;;;;;4.00;0.50;;;18.30;66.80;;;;;;5083235;28;20111;-62
2022/05/24 10:02:47;;;;;;;1.20;0.50;;;18.40;66.90;;;;;;5071720;28;20032;-63
2022/05/24 10:05:22;;;;;;;2.45;0.30;;;18.60;66.80;;;;;;5090951;28;20020;-63
2022/05/24 10:08:00;;;;;;;0.82;0.40;;;18.70;65.80;;;;;;5095373;28;20032;-62
2022/05/24 10:10:34;;;;;;;0.30;0.30;;;18.80;65.70;;;;;;5087103;28;20051;-62
2022/05/24 10:13:22;;;;;;;0.77;0.40;;;19.00;65.20;;;;;;5094059;28;20047;-64
2022/05/24 10:16:03;;;;;;;1.88;0.50;;;19.10;64.10;;;;;;5088155;28;20197;-64
2022/05/24 10:19:10;;;;;;;1.85;0.50;;;19.10;64.20;;;;;;5094097;28;20378;-64
2022/05/24 10:21:44;;;;;;;1.92;0.50;;;19.10;64.30;;;;;;5089790;28;20103;-63
2022/05/24 10:24:37;;;;;;;1.33;0.55;;;19.20;64.20;;;;;;5089578;28;20046;-63
2022/05/24 10:27:17;;;;;;;1.15;0.55;;;19.10;63.30;;;;;;5089029;28;20029;-64
2022/05/24 10:30:07;;;;;;;2.25;0.50;;;19.10;62.80;;;;;;5084199;28;20039;-63
2022/05/24 10:39:06;;;;;;;0.75;0.40;;;19.20;63.20;;;;;;5088986;28;20100;-62
2022/05/24 10:41:49;;;;;;;0.40;0.40;;;19.20;62.40;;;;;;5082200;28;20039;-62
2022/05/24 10:44:31;;;;;;;3.22;0.50;;;19.30;60.60;;;;;;5087788;28;20021;-60
2022/05/24 10:47:21;;;;;;;1.08;0.40;;;19.40;59.80;;;;;;5087346;28;20079;-62
2022/05/24 10:49:51;;;;;;;1.10;0.50;;;19.50;60.10;;;;;;5092886;28;20048;-61
2022/05/24 10:52:50;;;;;;;6.43;0.50;;;19.60;61.50;;;;;;5091078;28;20501;-62
2022/05/24 10:55:23;;;;;;;1.05;0.43;;;19.70;60.10;;;;;;5089275;28;20028;-62
2022/05/24 10:58:05;;;;;;;0.60;0.40;;;19.80;60.40;;;;;;5089679;28;20040;-62
2022/05/24 11:01:04;;;;;;;0.60;0.50;;;19.90;59.70;;;;;;5088085;28;20024;-62
2022/05/24 11:03:39;;;;;;;2.67;0.50;;;20.00;58.60;;;;;;5082266;28;20102;-64
2022/05/24 11:06:29;;;;;;;0.40;0.30;;;20.10;58.40;;;;;;5096170;28;20028;-63
2022/05/24 11:09:18;;;;;;;3.38;0.50;;;20.10;58.70;;;;;;5092367;28;20081;-62
2022/05/24 11:11:53;;;;;;;1.25;0.40;;;20.20;58.30;;;;;;5082536;28;20025;-64
2022/05/24 11:14:47;;;;;;;2.55;0.40;;;20.20;58.20;;;;;;5090671;28;20048;-64
2022/05/24 11:17:14;;;;;;;0.35;0.35;;;20.30;57.50;;;;;;5091972;28;20367;-62
2022/05/24 11:19:47;;;;;;;0.73;0.30;;;20.30;57.30;;;;;;5065421;28;20329;-65
2022/05/24 11:22:28;;;;;;;0.70;0.40;;;20.30;57.40;;;;;;5098290;28;20021;-65
2022/05/24 11:25:20;;;;;;;0.50;0.40;;;20.30;56.70;;;;;;5091654;28;20028;-64
2022/05/24 11:27:54;;;;;;;0.40;0.40;;;20.30;57.10;;;;;;5088075;28;20033;-63
2022/05/24 11:30:26;;;;;;;1.75;0.50;;;20.40;57.10;;;;;;5093199;28;20067;-64
2022/05/24 11:33:03;;;;;;;0.50;0.40;;;20.40;57.60;;;;;;5094092;28;20601;-63
2022/05/24 11:35:35;;;;;;;2.58;0.50;;;20.40;57.20;;;;;;5088235;28;20085;-65
2022/05/24 11:38:20;;;;;;;1.60;0.45;;;20.50;57.40;;;;;;5094844;28;20032;-64
2022/05/24 11:40:54;;;;;;;1.45;0.40;;;20.50;56.70;;;;;;5083064;28;20016;-64
2022/05/24 11:43:46;;;;;;;0.40;0.40;;;20.60;56.10;;;;;;5095066;28;20020;-63
2022/05/24 11:46:33;;;;;;;4.15;0.50;;;20.60;56.40;;;;;;5056502;28;20100;-63
2022/05/24 11:49:21;;;;;;;0.98;0.43;;;20.70;56.20;;;;;;5089813;28;20036;-63
2022/05/24 11:51:54;;;;;;;4.43;0.45;;;20.80;55.60;;;;;;5041322;28;20094;-64
2022/05/24 11:54:23;;;;;;;4.33;0.50;;;20.90;56.50;;;;;;5091627;28;20016;-64
2022/05/24 11:57:01;;;;;;;0.75;0.40;;;21.00;56.90;;;;;;5080046;28;20029;-65
2022/05/24 11:59:46;;;;;;;1.65;0.50;;;21.10;54.50;;;;;;5085969;28;20081;-67
2022/05/24 12:02:32;;;;;;;0.60;0.40;;;21.10;53.50;;;;;;5086737;28;20492;-63
2022/05/24 12:08:02;;;;;;;0.63;0.40;;;20.90;53.10;;;;;;5088919;28;20038;-64
2022/05/24 12:10:51;;;;;;;2.28;0.52;;;20.90;53.70;;;;;;5082179;28;20027;-65
2022/05/24 12:13:31;;;;;;;0.93;0.35;;;20.90;54.20;;;;;;5084402;28;20013;-65
2022/05/24 12:16:01;;;;;;;0.77;0.40;;;20.90;54.80;;;;;;5096103;28;20115;-65
2022/05/24 12:18:40;;;;;;;1.52;0.40;;;20.90;55.30;;;;;;5091576;28;20016;-64
2022/05/24 12:21:06;;;;;;;0.90;0.40;;;21.00;54.50;;;;;;5090969;28;20030;-65
2022/05/24 12:23:39;;;;;;;0.55;0.47;;;21.10;54.90;;;;;;5089305;28;20028;-65
2022/05/24 12:26:12;;;;;;;1.60;0.52;;;21.20;54.90;;;;;;5084938;28;20119;-64
2022/05/24 12:28:38;;;;;;;0.52;0.40;;;21.30;54.40;;;;;;5085745;28;20028;-65
2022/05/24 12:31:12;;;;;;;0.40;0.40;;;21.40;55.50;;;;;;5083504;28;20098;-65
2022/05/24 12:33:50;;;;;;;1.98;0.38;;;21.50;54.50;;;;;;5085742;28;20020;-65
2022/05/24 12:36:22;;;;;;;2.35;0.30;;;21.70;54.20;;;;;;5087690;28;20074;-64
2022/05/24 12:39:13;;;;;;;0.65;0.40;;;21.90;53.00;;;;;;5088907;28;20043;-64
2022/05/24 12:41:40;;;;;;;5.22;0.50;;;22.00;52.20;;;;;;5086230;28;20042;-64
2022/05/24 12:44:21;;;;;;;0.43;0.38;;;22.00;52.00;;;;;;5086745;28;20021;-65
2022/05/24 12:46:58;;;;;;;1.80;0.50;;;22.10;51.40;;;;;;5087444;28;20031;-64
2022/05/24 12:49:29;;;;;;;0.65;0.50;;;22.10;51.30;;;;;;5090226;28;20107;-63
2022/05/24 12:52:16;;;;;;;1.38;0.43;;;22.20;49.30;;;;;;5092798;28;20079;-63
2022/05/24 12:54:46;;;;;;;1.45;0.50;;;22.20;48.70;;;;;;5091193;28;20048;-64
2022/05/24 12:57:19;;;;;;;1.35;0.40;;;22.20;50.40;;;;;;5084057;28;20040;-65
2022/05/24 12:59:55;;;;;;;1.33;0.40;;;22.30;49.30;;;;;;5091849;28;20023;-65
2022/05/24 13:02:54;;;;;;;0.70;0.40;;;22.40;49.80;;;;;;5075730;28;20028;-64
2022/05/24 13:05:29;;;;;;;0.38;0.30;;;22.50;48.60;;;;;;5071377;28;20052;-65
2022/05/24 13:07:58;;;;;;;1.52;0.50;;;22.70;50.20;;;;;;5082751;28;20441;-65
2022/05/24 13:10:27;;;;;;;0.32;0.32;;;22.90;50.00;;;;;;5070009;28;20020;-65
2022/05/24 13:13:13;;;;;;;0.38;0.38;;;23.10;47.60;;;;;;5093444;28;20032;-65
2022/05/24 13:15:50;;;;;;;0.60;0.32;;;23.30;47.80;;;;;;5084990;28;20032;-64
2022/05/24 13:18:27;;;;;;;1.40;0.40;;;23.20;47.50;;;;;;5086182;28;20112;-64
2022/05/24 13:20:54;;;;;;;1.38;0.30;;;23.20;45.70;;;;;;5083479;28;20154;-64
2022/05/24 13:23:28;;;;;;;0.30;0.30;;;23.10;46.70;;;;;;5089003;28;20510;-65
2022/05/24 13:26:12;;;;;;;1.02;0.50;;;23.00;46.80;;;;;;5093977;28;20028;-64
2022/05/24 13:29:20;;;;;;;2.28;0.43;;;22.90;46.70;;;;;;5072663;28;20437;-65
2022/05/24 13:35:00;;;;;;;0.63;0.30;;;22.90;48.00;;;;;;5016266;28;21759;-64
2022/05/24 13:37:48;;;;;;;1.77;0.50;;;23.00;47.20;;;;;;5020240;28;20045;-64
2022/05/24 13:40:15;;;;;;;1.42;0.50;;;23.10;45.10;;;;;;5018978;28;20132;-65
2022/05/24 13:42:55;;;;;;;1.40;0.40;;;23.10;46.30;;;;;;5020774;28;20504;-65
2022/05/24 13:45:26;;;;;;;3.67;0.65;;;23.10;45.60;;;;;;5024255;28;21266;-63
2022/05/24 13:47:57;;;;;;;2.67;0.50;;;23.10;46.40;;;;;;5018789;28;20089;-64